sensor_id;sensor_type;location;lat;lon;timestamp;P1;durP1;ratioP1;P2;durP2;ratioP2
37655;SDS011;23498;50.958;3.124;2023-07-02T00:00:07;41.10;;;17.67;;
37655;SDS011;23498;50.958;3.124;2023-07-02T00:02:33;37.95;;;18.15;;
37655;SDS011;23498;50.958;3.124;2023-07-02T00:04:59;39.03;;;18.42;;
37655;SDS011;23498;50.958;3.124;2023-07-02T00:07:25;36.95;;;18.25;;
37655;SDS011;23498;50.958;3.124;2023-07-02T00:09:51;39.17;;;18.35;;
37655;SDS011;23498;50.958;3.124;2023-07-02T00:12:18;37.53;;;17.85;;
37655;SDS011;23498;50.958;3.124;2023-07-02T00:14:44;38.45;;;18.92;;
37655;SDS011;23498;50.958;3.124;2023-07-02T00:17:10;36.03;;;18.10;;
37655;SDS011;23498;50.958;3.124;2023-07-02T00:19:37;39.90;;;18.40;;
37655;SDS011;23498;50.958;3.124;2023-07-02T00:22:06;38.13;;;17.98;;
37655;SDS011;23498;50.958;3.124;2023-07-02T00:24:32;37.33;;;17.95;;
37655;SDS011;23498;50.958;3.124;2023-07-02T00:26:58;37.88;;;18.23;;
37655;SDS011;23498;50.958;3.124;2023-07-02T00:29:24;35.80;;;18.50;;
37655;SDS011;23498;50.958;3.124;2023-07-02T00:31:50;42.97;;;18.58;;
37655;SDS011;23498;50.958;3.124;2023-07-02T00:34:17;43.10;;;18.35;;
37655;SDS011;23498;50.958;3.124;2023-07-02T00:36:43;38.13;;;19.65;;
37655;SDS011;23498;50.958;3.124;2023-07-02T00:39:09;40.72;;;18.33;;
37655;SDS011;23498;50.958;3.124;2023-07-02T00:41:38;38.10;;;18.77;;
37655;SDS011;23498;50.958;3.124;2023-07-02T00:44:07;39.42;;;18.58;;
37655;SDS011;23498;50.958;3.124;2023-07-02T00:46:34;34.13;;;17.10;;
37655;SDS011;23498;50.958;3.124;2023-07-02T00:49:00;39.92;;;19.48;;
37655;SDS011;23498;50.958;3.124;2023-07-02T00:51:27;37.90;;;18.80;;
37655;SDS011;23498;50.958;3.124;2023-07-02T00:53:54;36.80;;;18.55;;
37655;SDS011;23498;50.958;3.124;2023-07-02T00:56:21;39.30;;;18.95;;
37655;SDS011;23498;50.958;3.124;2023-07-02T00:58:48;39.40;;;19.10;;
37655;SDS011;23498;50.958;3.124;2023-07-02T01:01:21;39.03;;;18.33;;
37655;SDS011;23498;50.958;3.124;2023-07-02T01:03:57;40.80;;;18.85;;
37655;SDS011;23498;50.958;3.124;2023-07-02T01:06:25;43.42;;;18.67;;
37655;SDS011;23498;50.958;3.124;2023-07-02T01:08:51;41.53;;;19.48;;
37655;SDS011;23498;50.958;3.124;2023-07-02T01:11:18;35.35;;;18.33;;
37655;SDS011;23498;50.958;3.124;2023-07-02T01:13:45;38.97;;;17.88;;
37655;SDS011;23498;50.958;3.124;2023-07-02T01:16:11;43.13;;;18.70;;
37655;SDS011;23498;50.958;3.124;2023-07-02T01:18:37;39.53;;;18.80;;
37655;SDS011;23498;50.958;3.124;2023-07-02T01:21:06;38.45;;;18.73;;
37655;SDS011;23498;50.958;3.124;2023-07-02T01:23:33;38.92;;;18.17;;
37655;SDS011;23498;50.958;3.124;2023-07-02T01:25:59;37.47;;;18.33;;
37655;SDS011;23498;50.958;3.124;2023-07-02T01:28:33;40.83;;;18.58;;
37655;SDS011;23498;50.958;3.124;2023-07-02T01:31:00;38.65;;;18.77;;
37655;SDS011;23498;50.958;3.124;2023-07-02T01:33:26;40.55;;;19.67;;
37655;SDS011;23498;50.958;3.124;2023-07-02T01:35:52;38.67;;;18.42;;
37655;SDS011;23498;50.958;3.124;2023-07-02T01:38:18;40.22;;;18.23;;
37655;SDS011;23498;50.958;3.124;2023-07-02T01:40:44;39.15;;;19.30;;
37655;SDS011;23498;50.958;3.124;2023-07-02T01:43:10;38.63;;;18.70;;
37655;SDS011;23498;50.958;3.124;2023-07-02T01:45:37;35.72;;;18.58;;
37655;SDS011;23498;50.958;3.124;2023-07-02T01:48:03;37.33;;;20.02;;
37655;SDS011;23498;50.958;3.124;2023-07-02T01:50:29;42.95;;;20.02;;
37655;SDS011;23498;50.958;3.124;2023-07-02T01:52:55;42.13;;;20.50;;
37655;SDS011;23498;50.958;3.124;2023-07-02T01:55:21;39.90;;;19.08;;
37655;SDS011;23498;50.958;3.124;2023-07-02T01:57:47;35.47;;;19.58;;
37655;SDS011;23498;50.958;3.124;2023-07-02T02:00:13;40.67;;;19.98;;
37655;SDS011;23498;50.958;3.124;2023-07-02T02:02:39;41.33;;;19.27;;
37655;SDS011;23498;50.958;3.124;2023-07-02T02:05:05;47.67;;;20.55;;
37655;SDS011;23498;50.958;3.124;2023-07-02T02:07:32;42.10;;;21.42;;
37655;SDS011;23498;50.958;3.124;2023-07-02T02:10:00;41.13;;;19.45;;
37655;SDS011;23498;50.958;3.124;2023-07-02T02:12:26;38.30;;;19.20;;
37655;SDS011;23498;50.958;3.124;2023-07-02T02:14:53;47.50;;;21.15;;
37655;SDS011;23498;50.958;3.124;2023-07-02T02:17:19;42.33;;;20.42;;
37655;SDS011;23498;50.958;3.124;2023-07-02T02:19:45;42.85;;;19.13;;
37655;SDS011;23498;50.958;3.124;2023-07-02T02:22:11;36.35;;;18.48;;
37655;SDS011;23498;50.958;3.124;2023-07-02T02:24:37;34.30;;;19.38;;
37655;SDS011;23498;50.958;3.124;2023-07-02T02:27:03;40.97;;;19.98;;
37655;SDS011;23498;50.958;3.124;2023-07-02T02:29:29;40.55;;;20.08;;
37655;SDS011;23498;50.958;3.124;2023-07-02T02:31:55;39.30;;;20.30;;
37655;SDS011;23498;50.958;3.124;2023-07-02T02:34:21;40.60;;;19.85;;
37655;SDS011;23498;50.958;3.124;2023-07-02T02:36:47;42.15;;;19.40;;
37655;SDS011;23498;50.958;3.124;2023-07-02T02:39:13;42.83;;;19.92;;
37655;SDS011;23498;50.958;3.124;2023-07-02T02:41:39;40.05;;;19.58;;
37655;SDS011;23498;50.958;3.124;2023-07-02T02:44:05;38.80;;;18.73;;
37655;SDS011;23498;50.958;3.124;2023-07-02T02:46:31;41.08;;;20.83;;
37655;SDS011;23498;50.958;3.124;2023-07-02T02:48:57;39.22;;;19.65;;
37655;SDS011;23498;50.958;3.124;2023-07-02T02:51:23;43.85;;;19.23;;
37655;SDS011;23498;50.958;3.124;2023-07-02T02:53:49;41.55;;;18.77;;
37655;SDS011;23498;50.958;3.124;2023-07-02T02:56:15;35.67;;;19.20;;
37655;SDS011;23498;50.958;3.124;2023-07-02T02:58:41;40.55;;;19.17;;
37655;SDS011;23498;50.958;3.124;2023-07-02T03:01:07;39.75;;;19.98;;
37655;SDS011;23498;50.958;3.124;2023-07-02T03:03:39;35.47;;;18.70;;
37655;SDS011;23498;50.958;3.124;2023-07-02T03:06:10;39.53;;;19.23;;
37655;SDS011;23498;50.958;3.124;2023-07-02T03:08:36;38.28;;;18.70;;
37655;SDS011;23498;50.958;3.124;2023-07-02T03:11:02;37.58;;;18.30;;
37655;SDS011;23498;50.958;3.124;2023-07-02T03:13:28;40.15;;;18.88;;
37655;SDS011;23498;50.958;3.124;2023-07-02T03:15:54;37.70;;;18.63;;
37655;SDS011;23498;50.958;3.124;2023-07-02T03:18:20;37.22;;;18.45;;
37655;SDS011;23498;50.958;3.124;2023-07-02T03:20:46;38.05;;;18.08;;
37655;SDS011;23498;50.958;3.124;2023-07-02T03:23:12;34.42;;;17.88;;
37655;SDS011;23498;50.958;3.124;2023-07-02T03:25:38;34.35;;;18.98;;
37655;SDS011;23498;50.958;3.124;2023-07-02T03:28:04;39.72;;;17.73;;
37655;SDS011;23498;50.958;3.124;2023-07-02T03:30:30;34.00;;;17.75;;
37655;SDS011;23498;50.958;3.124;2023-07-02T03:32:57;33.90;;;17.75;;
37655;SDS011;23498;50.958;3.124;2023-07-02T03:35:23;32.35;;;16.83;;
37655;SDS011;23498;50.958;3.124;2023-07-02T03:37:49;37.90;;;17.75;;
37655;SDS011;23498;50.958;3.124;2023-07-02T03:40:15;34.65;;;18.13;;
37655;SDS011;23498;50.958;3.124;2023-07-02T03:42:43;31.67;;;16.67;;
37655;SDS011;23498;50.958;3.124;2023-07-02T03:45:09;31.42;;;16.55;;
37655;SDS011;23498;50.958;3.124;2023-07-02T03:47:35;32.05;;;16.00;;
37655;SDS011;23498;50.958;3.124;2023-07-02T03:50:01;31.88;;;15.10;;
37655;SDS011;23498;50.958;3.124;2023-07-02T03:52:27;30.38;;;15.70;;
37655;SDS011;23498;50.958;3.124;2023-07-02T03:54:53;29.67;;;15.57;;
37655;SDS011;23498;50.958;3.124;2023-07-02T03:57:19;28.73;;;14.88;;
37655;SDS011;23498;50.958;3.124;2023-07-02T03:59:46;31.42;;;15.10;;
37655;SDS011;23498;50.958;3.124;2023-07-02T04:02:12;25.90;;;13.57;;
37655;SDS011;23498;50.958;3.124;2023-07-02T04:04:38;30.35;;;13.98;;
37655;SDS011;23498;50.958;3.124;2023-07-02T04:07:04;26.63;;;15.10;;
37655;SDS011;23498;50.958;3.124;2023-07-02T04:09:30;29.38;;;15.00;;
37655;SDS011;23498;50.958;3.124;2023-07-02T04:11:57;30.90;;;13.70;;
37655;SDS011;23498;50.958;3.124;2023-07-02T04:14:23;26.85;;;13.50;;
37655;SDS011;23498;50.958;3.124;2023-07-02T04:16:49;27.20;;;13.65;;
37655;SDS011;23498;50.958;3.124;2023-07-02T04:19:15;31.33;;;14.40;;
37655;SDS011;23498;50.958;3.124;2023-07-02T04:21:41;26.45;;;12.65;;
37655;SDS011;23498;50.958;3.124;2023-07-02T04:24:07;27.05;;;13.65;;
37655;SDS011;23498;50.958;3.124;2023-07-02T04:26:33;29.83;;;12.95;;
37655;SDS011;23498;50.958;3.124;2023-07-02T04:29:01;30.98;;;12.80;;
37655;SDS011;23498;50.958;3.124;2023-07-02T04:31:27;28.67;;;12.68;;
37655;SDS011;23498;50.958;3.124;2023-07-02T04:33:53;26.48;;;12.98;;
37655;SDS011;23498;50.958;3.124;2023-07-02T04:36:19;30.52;;;14.00;;
37655;SDS011;23498;50.958;3.124;2023-07-02T04:38:45;31.55;;;13.88;;
37655;SDS011;23498;50.958;3.124;2023-07-02T04:41:11;29.02;;;13.90;;
37655;SDS011;23498;50.958;3.124;2023-07-02T04:43:37;28.92;;;13.85;;
37655;SDS011;23498;50.958;3.124;2023-07-02T04:46:03;28.88;;;14.20;;
37655;SDS011;23498;50.958;3.124;2023-07-02T04:48:32;27.85;;;14.05;;
37655;SDS011;23498;50.958;3.124;2023-07-02T04:50:58;29.35;;;14.98;;
37655;SDS011;23498;50.958;3.124;2023-07-02T04:53:24;27.70;;;15.00;;
37655;SDS011;23498;50.958;3.124;2023-07-02T04:55:50;28.50;;;14.43;;
37655;SDS011;23498;50.958;3.124;2023-07-02T04:58:16;30.05;;;14.90;;
37655;SDS011;23498;50.958;3.124;2023-07-02T05:00:42;27.10;;;15.00;;
37655;SDS011;23498;50.958;3.124;2023-07-02T05:03:08;26.40;;;13.77;;
37655;SDS011;23498;50.958;3.124;2023-07-02T05:05:34;26.38;;;13.73;;
37655;SDS011;23498;50.958;3.124;2023-07-02T05:07:59;31.02;;;13.70;;
37655;SDS011;23498;50.958;3.124;2023-07-02T05:10:25;31.25;;;14.48;;
37655;SDS011;23498;50.958;3.124;2023-07-02T05:12:51;28.02;;;14.07;;
37655;SDS011;23498;50.958;3.124;2023-07-02T05:15:17;27.60;;;14.50;;
37655;SDS011;23498;50.958;3.124;2023-07-02T05:17:43;27.13;;;13.15;;
37655;SDS011;23498;50.958;3.124;2023-07-02T05:20:09;28.67;;;14.52;;
37655;SDS011;23498;50.958;3.124;2023-07-02T05:22:35;28.35;;;14.13;;
37655;SDS011;23498;50.958;3.124;2023-07-02T05:25:01;28.73;;;14.38;;
37655;SDS011;23498;50.958;3.124;2023-07-02T05:27:27;28.50;;;14.25;;
37655;SDS011;23498;50.958;3.124;2023-07-02T05:29:53;31.70;;;14.85;;
37655;SDS011;23498;50.958;3.124;2023-07-02T05:32:19;32.60;;;13.88;;
37655;SDS011;23498;50.958;3.124;2023-07-02T05:34:46;26.38;;;13.95;;
37655;SDS011;23498;50.958;3.124;2023-07-02T05:37:12;27.40;;;13.57;;
37655;SDS011;23498;50.958;3.124;2023-07-02T05:39:37;32.53;;;14.23;;
37655;SDS011;23498;50.958;3.124;2023-07-02T05:42:04;29.45;;;13.70;;
37655;SDS011;23498;50.958;3.124;2023-07-02T05:44:30;27.95;;;13.70;;
37655;SDS011;23498;50.958;3.124;2023-07-02T05:46:55;26.95;;;13.38;;
37655;SDS011;23498;50.958;3.124;2023-07-02T05:49:21;29.67;;;13.65;;
37655;SDS011;23498;50.958;3.124;2023-07-02T05:51:47;25.65;;;12.80;;
37655;SDS011;23498;50.958;3.124;2023-07-02T05:54:14;29.92;;;12.48;;
37655;SDS011;23498;50.958;3.124;2023-07-02T05:56:39;29.65;;;13.00;;
37655;SDS011;23498;50.958;3.124;2023-07-02T05:59:06;29.63;;;13.77;;
37655;SDS011;23498;50.958;3.124;2023-07-02T06:01:31;29.17;;;13.27;;
37655;SDS011;23498;50.958;3.124;2023-07-02T06:03:57;25.13;;;13.23;;
37655;SDS011;23498;50.958;3.124;2023-07-02T06:06:23;27.50;;;12.80;;
37655;SDS011;23498;50.958;3.124;2023-07-02T06:08:50;30.15;;;12.88;;
37655;SDS011;23498;50.958;3.124;2023-07-02T06:11:16;28.25;;;13.13;;
37655;SDS011;23498;50.958;3.124;2023-07-02T06:13:42;25.75;;;12.43;;
37655;SDS011;23498;50.958;3.124;2023-07-02T06:16:08;22.77;;;11.88;;
37655;SDS011;23498;50.958;3.124;2023-07-02T06:18:34;27.17;;;11.93;;
37655;SDS011;23498;50.958;3.124;2023-07-02T06:21:00;24.05;;;11.38;;
37655;SDS011;23498;50.958;3.124;2023-07-02T06:23:26;23.70;;;11.25;;
37655;SDS011;23498;50.958;3.124;2023-07-02T06:25:53;25.45;;;11.25;;
37655;SDS011;23498;50.958;3.124;2023-07-02T06:28:24;32.22;;;11.15;;
37655;SDS011;23498;50.958;3.124;2023-07-02T06:30:50;25.35;;;12.40;;
37655;SDS011;23498;50.958;3.124;2023-07-02T06:33:16;26.70;;;12.30;;
37655;SDS011;23498;50.958;3.124;2023-07-02T06:35:42;25.95;;;12.35;;
37655;SDS011;23498;50.958;3.124;2023-07-02T06:38:08;23.45;;;12.65;;
37655;SDS011;23498;50.958;3.124;2023-07-02T06:40:34;23.38;;;11.68;;
37655;SDS011;23498;50.958;3.124;2023-07-02T06:43:00;27.58;;;12.48;;
37655;SDS011;23498;50.958;3.124;2023-07-02T06:45:26;25.90;;;13.05;;
37655;SDS011;23498;50.958;3.124;2023-07-02T06:47:52;30.45;;;13.48;;
37655;SDS011;23498;50.958;3.124;2023-07-02T06:50:18;27.52;;;13.27;;
37655;SDS011;23498;50.958;3.124;2023-07-02T06:52:44;27.05;;;12.18;;
37655;SDS011;23498;50.958;3.124;2023-07-02T06:55:10;26.92;;;13.13;;
37655;SDS011;23498;50.958;3.124;2023-07-02T06:57:41;28.98;;;12.40;;
37655;SDS011;23498;50.958;3.124;2023-07-02T07:00:08;28.83;;;12.73;;
37655;SDS011;23498;50.958;3.124;2023-07-02T07:02:34;27.25;;;12.55;;
37655;SDS011;23498;50.958;3.124;2023-07-02T07:05:00;27.88;;;12.00;;
37655;SDS011;23498;50.958;3.124;2023-07-02T07:07:26;28.63;;;12.55;;
37655;SDS011;23498;50.958;3.124;2023-07-02T07:09:52;21.88;;;11.80;;
37655;SDS011;23498;50.958;3.124;2023-07-02T07:12:18;25.52;;;11.57;;
37655;SDS011;23498;50.958;3.124;2023-07-02T07:14:44;24.45;;;11.30;;
37655;SDS011;23498;50.958;3.124;2023-07-02T07:17:11;25.92;;;12.07;;
37655;SDS011;23498;50.958;3.124;2023-07-02T07:19:37;25.38;;;11.43;;
37655;SDS011;23498;50.958;3.124;2023-07-02T07:22:03;24.42;;;11.57;;
37655;SDS011;23498;50.958;3.124;2023-07-02T07:24:29;28.70;;;12.40;;
37655;SDS011;23498;50.958;3.124;2023-07-02T07:26:55;25.02;;;10.57;;
37655;SDS011;23498;50.958;3.124;2023-07-02T07:29:21;27.05;;;10.63;;
37655;SDS011;23498;50.958;3.124;2023-07-02T07:31:47;20.85;;;10.13;;
37655;SDS011;23498;50.958;3.124;2023-07-02T07:34:13;25.02;;;10.40;;
37655;SDS011;23498;50.958;3.124;2023-07-02T07:36:39;23.70;;;10.55;;
37655;SDS011;23498;50.958;3.124;2023-07-02T07:39:05;22.35;;;10.88;;
37655;SDS011;23498;50.958;3.124;2023-07-02T07:41:31;26.98;;;10.35;;
37655;SDS011;23498;50.958;3.124;2023-07-02T07:43:57;24.58;;;10.63;;
37655;SDS011;23498;50.958;3.124;2023-07-02T07:46:23;23.27;;;10.65;;
37655;SDS011;23498;50.958;3.124;2023-07-02T07:48:49;23.02;;;10.55;;
37655;SDS011;23498;50.958;3.124;2023-07-02T07:51:15;24.60;;;10.38;;
37655;SDS011;23498;50.958;3.124;2023-07-02T07:53:41;26.33;;;11.07;;
37655;SDS011;23498;50.958;3.124;2023-07-02T07:56:08;25.27;;;11.45;;
37655;SDS011;23498;50.958;3.124;2023-07-02T07:58:33;20.20;;;9.25;;
37655;SDS011;23498;50.958;3.124;2023-07-02T08:00:59;20.60;;;8.50;;
37655;SDS011;23498;50.958;3.124;2023-07-02T08:03:25;23.83;;;8.93;;
37655;SDS011;23498;50.958;3.124;2023-07-02T08:05:51;22.75;;;9.93;;
37655;SDS011;23498;50.958;3.124;2023-07-02T08:08:17;23.00;;;10.50;;
37655;SDS011;23498;50.958;3.124;2023-07-02T08:10:43;23.88;;;10.88;;
37655;SDS011;23498;50.958;3.124;2023-07-02T08:13:11;20.83;;;8.38;;
37655;SDS011;23498;50.958;3.124;2023-07-02T08:15:37;21.80;;;9.13;;
37655;SDS011;23498;50.958;3.124;2023-07-02T08:18:03;18.65;;;8.23;;
37655;SDS011;23498;50.958;3.124;2023-07-02T08:20:31;17.55;;;7.93;;
37655;SDS011;23498;50.958;3.124;2023-07-02T08:22:57;17.90;;;7.28;;
37655;SDS011;23498;50.958;3.124;2023-07-02T08:25:23;18.70;;;7.72;;
37655;SDS011;23498;50.958;3.124;2023-07-02T08:27:51;17.33;;;7.55;;
37655;SDS011;23498;50.958;3.124;2023-07-02T08:30:17;15.98;;;7.15;;
37655;SDS011;23498;50.958;3.124;2023-07-02T08:32:43;15.15;;;7.30;;
37655;SDS011;23498;50.958;3.124;2023-07-02T08:35:11;17.25;;;6.38;;
37655;SDS011;23498;50.958;3.124;2023-07-02T08:37:37;13.27;;;6.07;;
37655;SDS011;23498;50.958;3.124;2023-07-02T08:40:03;13.55;;;5.95;;
37655;SDS011;23498;50.958;3.124;2023-07-02T08:42:31;16.38;;;5.97;;
37655;SDS011;23498;50.958;3.124;2023-07-02T08:44:57;16.00;;;5.50;;
37655;SDS011;23498;50.958;3.124;2023-07-02T08:47:24;13.63;;;5.28;;
37655;SDS011;23498;50.958;3.124;2023-07-02T08:49:50;16.08;;;5.43;;
37655;SDS011;23498;50.958;3.124;2023-07-02T08:52:17;15.00;;;6.25;;
37655;SDS011;23498;50.958;3.124;2023-07-02T08:54:43;14.93;;;5.47;;
37655;SDS011;23498;50.958;3.124;2023-07-02T08:57:09;14.65;;;5.43;;
37655;SDS011;23498;50.958;3.124;2023-07-02T08:59:35;10.40;;;4.97;;
37655;SDS011;23498;50.958;3.124;2023-07-02T09:02:01;9.10;;;4.80;;
37655;SDS011;23498;50.958;3.124;2023-07-02T09:04:27;13.60;;;4.53;;
37655;SDS011;23498;50.958;3.124;2023-07-02T09:09:32;16.08;;;5.18;;
37655;SDS011;23498;50.958;3.124;2023-07-02T09:11:58;12.27;;;4.50;;
37655;SDS011;23498;50.958;3.124;2023-07-02T09:14:28;15.82;;;5.22;;
37655;SDS011;23498;50.958;3.124;2023-07-02T09:17:28;17.15;;;5.13;;
37655;SDS011;23498;50.958;3.124;2023-07-02T09:19:51;12.02;;;5.15;;
37655;SDS011;23498;50.958;3.124;2023-07-02T09:22:17;15.68;;;5.63;;
37655;SDS011;23498;50.958;3.124;2023-07-02T09:24:50;13.65;;;5.57;;
37655;SDS011;23498;50.958;3.124;2023-07-02T09:27:18;14.38;;;5.55;;
37655;SDS011;23498;50.958;3.124;2023-07-02T09:29:49;11.52;;;5.22;;
37655;SDS011;23498;50.958;3.124;2023-07-02T09:34:41;12.70;;;5.28;;
37655;SDS011;23498;50.958;3.124;2023-07-02T09:37:08;15.27;;;5.80;;
37655;SDS011;23498;50.958;3.124;2023-07-02T09:39:34;17.45;;;6.32;;
37655;SDS011;23498;50.958;3.124;2023-07-02T09:42:02;12.73;;;5.88;;
37655;SDS011;23498;50.958;3.124;2023-07-02T09:44:31;15.05;;;6.18;;
37655;SDS011;23498;50.958;3.124;2023-07-02T09:47:02;15.02;;;5.82;;
37655;SDS011;23498;50.958;3.124;2023-07-02T09:49:31;16.30;;;6.47;;
37655;SDS011;23498;50.958;3.124;2023-07-02T09:51:58;16.23;;;6.55;;
37655;SDS011;23498;50.958;3.124;2023-07-02T09:54:24;17.50;;;6.93;;
37655;SDS011;23498;50.958;3.124;2023-07-02T09:56:50;14.25;;;6.47;;
37655;SDS011;23498;50.958;3.124;2023-07-02T09:59:16;14.73;;;6.07;;
37655;SDS011;23498;50.958;3.124;2023-07-02T10:01:42;13.93;;;6.40;;
37655;SDS011;23498;50.958;3.124;2023-07-02T10:04:15;14.70;;;6.20;;
37655;SDS011;23498;50.958;3.124;2023-07-02T10:09:12;14.80;;;6.25;;
37655;SDS011;23498;50.958;3.124;2023-07-02T10:11:38;15.10;;;6.57;;
37655;SDS011;23498;50.958;3.124;2023-07-02T10:14:04;14.80;;;6.57;;
37655;SDS011;23498;50.958;3.124;2023-07-02T10:16:30;14.90;;;7.30;;
37655;SDS011;23498;50.958;3.124;2023-07-02T10:19:09;15.63;;;6.05;;
37655;SDS011;23498;50.958;3.124;2023-07-02T10:21:36;14.32;;;5.75;;
37655;SDS011;23498;50.958;3.124;2023-07-02T10:24:08;12.57;;;5.20;;
37655;SDS011;23498;50.958;3.124;2023-07-02T10:26:34;15.50;;;6.28;;
37655;SDS011;23498;50.958;3.124;2023-07-02T10:29:00;14.82;;;5.18;;
37655;SDS011;23498;50.958;3.124;2023-07-02T10:31:27;15.63;;;5.47;;
37655;SDS011;23498;50.958;3.124;2023-07-02T10:33:55;14.07;;;5.68;;
37655;SDS011;23498;50.958;3.124;2023-07-02T10:36:22;12.85;;;5.97;;
37655;SDS011;23498;50.958;3.124;2023-07-02T10:38:49;16.92;;;6.00;;
37655;SDS011;23498;50.958;3.124;2023-07-02T10:41:25;11.48;;;4.97;;
37655;SDS011;23498;50.958;3.124;2023-07-02T10:43:51;13.95;;;5.45;;
37655;SDS011;23498;50.958;3.124;2023-07-02T10:46:21;13.60;;;5.63;;
37655;SDS011;23498;50.958;3.124;2023-07-02T10:48:51;14.23;;;5.10;;
37655;SDS011;23498;50.958;3.124;2023-07-02T10:51:17;14.02;;;6.05;;
37655;SDS011;23498;50.958;3.124;2023-07-02T10:53:43;13.10;;;5.60;;
37655;SDS011;23498;50.958;3.124;2023-07-02T10:56:15;11.95;;;5.15;;
37655;SDS011;23498;50.958;3.124;2023-07-02T10:58:43;10.70;;;4.97;;
37655;SDS011;23498;50.958;3.124;2023-07-02T11:01:11;10.52;;;4.85;;
37655;SDS011;23498;50.958;3.124;2023-07-02T11:03:37;14.00;;;5.65;;
37655;SDS011;23498;50.958;3.124;2023-07-02T11:06:03;14.48;;;5.38;;
37655;SDS011;23498;50.958;3.124;2023-07-02T11:08:35;13.68;;;5.55;;
37655;SDS011;23498;50.958;3.124;2023-07-02T11:11:07;12.40;;;5.85;;
37655;SDS011;23498;50.958;3.124;2023-07-02T11:13:33;11.77;;;5.40;;
37655;SDS011;23498;50.958;3.124;2023-07-02T11:15:59;12.88;;;4.78;;
37655;SDS011;23498;50.958;3.124;2023-07-02T11:18:29;13.38;;;4.90;;
37655;SDS011;23498;50.958;3.124;2023-07-02T11:20:56;10.47;;;5.30;;
37655;SDS011;23498;50.958;3.124;2023-07-02T11:23:23;10.52;;;4.47;;
37655;SDS011;23498;50.958;3.124;2023-07-02T11:25:59;11.18;;;4.93;;
37655;SDS011;23498;50.958;3.124;2023-07-02T11:28:26;11.63;;;5.03;;
37655;SDS011;23498;50.958;3.124;2023-07-02T11:30:52;11.43;;;5.00;;
37655;SDS011;23498;50.958;3.124;2023-07-02T11:33:18;11.00;;;5.35;;
37655;SDS011;23498;50.958;3.124;2023-07-02T11:35:44;12.77;;;5.25;;
37655;SDS011;23498;50.958;3.124;2023-07-02T11:38:10;11.35;;;4.78;;
37655;SDS011;23498;50.958;3.124;2023-07-02T11:40:36;12.75;;;6.45;;
37655;SDS011;23498;50.958;3.124;2023-07-02T11:43:02;10.00;;;5.10;;
37655;SDS011;23498;50.958;3.124;2023-07-02T11:45:29;9.38;;;4.60;;
37655;SDS011;23498;50.958;3.124;2023-07-02T11:47:55;12.32;;;5.20;;
37655;SDS011;23498;50.958;3.124;2023-07-02T11:50:21;13.73;;;4.63;;
37655;SDS011;23498;50.958;3.124;2023-07-02T11:52:46;9.02;;;4.53;;
37655;SDS011;23498;50.958;3.124;2023-07-02T11:55:13;10.35;;;4.82;;
37655;SDS011;23498;50.958;3.124;2023-07-02T11:57:38;12.50;;;5.22;;
37655;SDS011;23498;50.958;3.124;2023-07-02T12:00:05;11.60;;;4.88;;
37655;SDS011;23498;50.958;3.124;2023-07-02T12:02:31;12.27;;;4.60;;
37655;SDS011;23498;50.958;3.124;2023-07-02T12:04:57;11.25;;;4.80;;
37655;SDS011;23498;50.958;3.124;2023-07-02T12:07:23;10.77;;;4.78;;
37655;SDS011;23498;50.958;3.124;2023-07-02T12:09:50;11.88;;;4.90;;
37655;SDS011;23498;50.958;3.124;2023-07-02T12:12:16;13.68;;;4.55;;
37655;SDS011;23498;50.958;3.124;2023-07-02T12:14:42;9.73;;;4.70;;
37655;SDS011;23498;50.958;3.124;2023-07-02T12:17:09;9.57;;;4.43;;
37655;SDS011;23498;50.958;3.124;2023-07-02T12:19:37;11.05;;;5.32;;
37655;SDS011;23498;50.958;3.124;2023-07-02T12:22:04;11.80;;;5.32;;
37655;SDS011;23498;50.958;3.124;2023-07-02T12:24:30;11.88;;;5.07;;
37655;SDS011;23498;50.958;3.124;2023-07-02T12:26:56;12.93;;;4.95;;
37655;SDS011;23498;50.958;3.124;2023-07-02T12:29:22;11.18;;;4.50;;
37655;SDS011;23498;50.958;3.124;2023-07-02T12:31:47;8.27;;;4.40;;
37655;SDS011;23498;50.958;3.124;2023-07-02T12:34:13;14.10;;;5.20;;
37655;SDS011;23498;50.958;3.124;2023-07-02T12:36:40;12.60;;;5.15;;
37655;SDS011;23498;50.958;3.124;2023-07-02T12:39:06;11.63;;;5.28;;
37655;SDS011;23498;50.958;3.124;2023-07-02T12:41:32;12.27;;;5.28;;
37655;SDS011;23498;50.958;3.124;2023-07-02T12:43:58;11.10;;;4.88;;
37655;SDS011;23498;50.958;3.124;2023-07-02T12:46:24;10.48;;;4.28;;
37655;SDS011;23498;50.958;3.124;2023-07-02T12:48:50;14.27;;;5.05;;
37655;SDS011;23498;50.958;3.124;2023-07-02T12:51:16;11.15;;;4.70;;
37655;SDS011;23498;50.958;3.124;2023-07-02T12:53:42;15.73;;;5.60;;
37655;SDS011;23498;50.958;3.124;2023-07-02T12:56:08;10.75;;;4.70;;
37655;SDS011;23498;50.958;3.124;2023-07-02T12:58:34;12.63;;;5.10;;
37655;SDS011;23498;50.958;3.124;2023-07-02T13:01:00;11.88;;;5.07;;
37655;SDS011;23498;50.958;3.124;2023-07-02T13:03:29;16.48;;;5.38;;
37655;SDS011;23498;50.958;3.124;2023-07-02T13:05:55;13.88;;;5.47;;
37655;SDS011;23498;50.958;3.124;2023-07-02T13:08:21;13.23;;;5.70;;
37655;SDS011;23498;50.958;3.124;2023-07-02T13:10:47;14.95;;;6.47;;
37655;SDS011;23498;50.958;3.124;2023-07-02T13:13:13;14.60;;;6.30;;
37655;SDS011;23498;50.958;3.124;2023-07-02T13:15:39;14.48;;;6.43;;
37655;SDS011;23498;50.958;3.124;2023-07-02T13:18:05;13.95;;;6.22;;
37655;SDS011;23498;50.958;3.124;2023-07-02T13:20:31;14.05;;;5.78;;
37655;SDS011;23498;50.958;3.124;2023-07-02T13:22:57;9.13;;;4.82;;
37655;SDS011;23498;50.958;3.124;2023-07-02T13:25:23;12.98;;;5.90;;
37655;SDS011;23498;50.958;3.124;2023-07-02T13:27:49;13.82;;;6.05;;
37655;SDS011;23498;50.958;3.124;2023-07-02T13:30:15;11.95;;;5.15;;
37655;SDS011;23498;50.958;3.124;2023-07-02T13:32:41;13.13;;;5.90;;
37655;SDS011;23498;50.958;3.124;2023-07-02T13:35:07;12.30;;;5.85;;
37655;SDS011;23498;50.958;3.124;2023-07-02T13:37:33;11.93;;;5.40;;
37655;SDS011;23498;50.958;3.124;2023-07-02T13:39:59;13.70;;;6.03;;
37655;SDS011;23498;50.958;3.124;2023-07-02T13:42:25;11.95;;;5.28;;
37655;SDS011;23498;50.958;3.124;2023-07-02T13:44:51;14.13;;;5.15;;
37655;SDS011;23498;50.958;3.124;2023-07-02T13:47:17;12.52;;;5.32;;
37655;SDS011;23498;50.958;3.124;2023-07-02T13:49:43;13.75;;;5.20;;
37655;SDS011;23498;50.958;3.124;2023-07-02T13:52:09;12.98;;;5.30;;
37655;SDS011;23498;50.958;3.124;2023-07-02T13:54:35;14.63;;;5.15;;
37655;SDS011;23498;50.958;3.124;2023-07-02T13:57:01;13.27;;;4.97;;
37655;SDS011;23498;50.958;3.124;2023-07-02T13:59:27;13.13;;;5.03;;
37655;SDS011;23498;50.958;3.124;2023-07-02T14:01:53;10.48;;;4.55;;
37655;SDS011;23498;50.958;3.124;2023-07-02T14:04:19;11.80;;;5.15;;
37655;SDS011;23498;50.958;3.124;2023-07-02T14:06:45;16.10;;;5.43;;
37655;SDS011;23498;50.958;3.124;2023-07-02T14:09:11;14.50;;;4.85;;
37655;SDS011;23498;50.958;3.124;2023-07-02T14:11:38;14.82;;;4.75;;
37655;SDS011;23498;50.958;3.124;2023-07-02T14:14:04;13.57;;;4.63;;
37655;SDS011;23498;50.958;3.124;2023-07-02T14:16:30;13.77;;;5.15;;
37655;SDS011;23498;50.958;3.124;2023-07-02T14:18:56;14.43;;;5.32;;
37655;SDS011;23498;50.958;3.124;2023-07-02T14:21:23;11.68;;;4.97;;
37655;SDS011;23498;50.958;3.124;2023-07-02T14:23:49;11.60;;;5.00;;
37655;SDS011;23498;50.958;3.124;2023-07-02T14:26:15;11.20;;;4.53;;
37655;SDS011;23498;50.958;3.124;2023-07-02T14:28:41;11.23;;;4.28;;
37655;SDS011;23498;50.958;3.124;2023-07-02T14:31:07;9.13;;;3.80;;